sensor_id;sensor_type;location;lat;lon;timestamp;P1;durP1;ratioP1;P2;durP2;ratioP2
58992;SDS011;44782;0.000;0.000;2022-12-18T00:01:35;9.20;;;8.40;;
58992;SDS011;44782;0.000;0.000;2022-12-18T00:03:52;9.03;;;8.23;;
58992;SDS011;44782;0.000;0.000;2022-12-18T00:06:09;9.50;;;8.63;;
58992;SDS011;44782;0.000;0.000;2022-12-18T00:08:26;9.53;;;8.63;;
58992;SDS011;44782;0.000;0.000;2022-12-18T00:10:42;9.13;;;8.33;;
58992;SDS011;44782;0.000;0.000;2022-12-18T00:12:58;8.77;;;7.97;;
58992;SDS011;44782;0.000;0.000;2022-12-18T00:15:14;9.17;;;8.37;;
58992;SDS011;44782;0.000;0.000;2022-12-18T00:17:30;8.60;;;7.77;;
58992;SDS011;44782;0.000;0.000;2022-12-18T00:19:45;8.77;;;7.97;;
58992;SDS011;44782;0.000;0.000;2022-12-18T00:22:01;9.30;;;8.40;;
58992;SDS011;44782;0.000;0.000;2022-12-18T00:24:17;9.10;;;8.20;;
58992;SDS011;44782;0.000;0.000;2022-12-18T00:26:33;8.87;;;8.07;;
58992;SDS011;44782;0.000;0.000;2022-12-18T00:28:51;9.43;;;8.63;;
58992;SDS011;44782;0.000;0.000;2022-12-18T00:31:14;9.17;;;8.33;;
58992;SDS011;44782;0.000;0.000;2022-12-18T00:33:31;9.00;;;8.20;;
58992;SDS011;44782;0.000;0.000;2022-12-18T00:35:47;9.37;;;8.57;;
58992;SDS011;44782;0.000;0.000;2022-12-18T00:38:03;8.17;;;7.47;;
58992;SDS011;44782;0.000;0.000;2022-12-18T00:40:21;9.20;;;8.40;;
58992;SDS011;44782;0.000;0.000;2022-12-18T00:42:36;8.60;;;7.80;;
58992;SDS011;44782;0.000;0.000;2022-12-18T00:45:10;8.00;;;7.30;;
58992;SDS011;44782;0.000;0.000;2022-12-18T00:47:26;9.00;;;8.20;;
58992;SDS011;44782;0.000;0.000;2022-12-18T00:49:41;8.63;;;7.93;;
58992;SDS011;44782;0.000;0.000;2022-12-18T00:51:57;8.80;;;8.00;;
58992;SDS011;44782;0.000;0.000;2022-12-18T00:54:13;8.43;;;7.73;;
58992;SDS011;44782;0.000;0.000;2022-12-18T00:56:28;8.70;;;7.93;;
58992;SDS011;44782;0.000;0.000;2022-12-18T00:58:44;7.97;;;7.27;;
58992;SDS011;44782;0.000;0.000;2022-12-18T01:01:00;8.53;;;7.80;;
58992;SDS011;44782;0.000;0.000;2022-12-18T01:03:15;8.87;;;8.07;;
58992;SDS011;44782;0.000;0.000;2022-12-18T01:05:31;8.47;;;7.77;;
58992;SDS011;44782;0.000;0.000;2022-12-18T01:07:48;8.53;;;7.83;;
58992;SDS011;44782;0.000;0.000;2022-12-18T01:10:03;8.60;;;7.80;;
58992;SDS011;44782;0.000;0.000;2022-12-18T01:12:20;8.40;;;7.70;;
58992;SDS011;44782;0.000;0.000;2022-12-18T01:14:36;8.40;;;7.70;;
58992;SDS011;44782;0.000;0.000;2022-12-18T01:16:53;8.37;;;7.67;;
58992;SDS011;44782;0.000;0.000;2022-12-18T01:19:08;8.37;;;7.67;;
58992;SDS011;44782;0.000;0.000;2022-12-18T01:21:24;7.80;;;7.10;;
58992;SDS011;44782;0.000;0.000;2022-12-18T01:23:40;8.80;;;8.00;;
58992;SDS011;44782;0.000;0.000;2022-12-18T01:25:56;8.33;;;7.63;;
58992;SDS011;44782;0.000;0.000;2022-12-18T01:28:13;8.40;;;7.70;;
58992;SDS011;44782;0.000;0.000;2022-12-18T01:30:28;8.27;;;7.57;;
58992;SDS011;44782;0.000;0.000;2022-12-18T01:32:44;8.00;;;7.30;;
58992;SDS011;44782;0.000;0.000;2022-12-18T01:34:59;8.13;;;7.43;;
58992;SDS011;44782;0.000;0.000;2022-12-18T01:37:15;8.27;;;7.57;;
58992;SDS011;44782;0.000;0.000;2022-12-18T01:39:31;7.93;;;7.23;;
58992;SDS011;44782;0.000;0.000;2022-12-18T01:41:47;8.60;;;7.90;;
58992;SDS011;44782;0.000;0.000;2022-12-18T01:47:02;7.50;;;6.80;;
58992;SDS011;44782;0.000;0.000;2022-12-18T01:49:18;8.10;;;7.40;;
58992;SDS011;44782;0.000;0.000;2022-12-18T01:51:33;7.87;;;7.23;;
58992;SDS011;44782;0.000;0.000;2022-12-18T01:53:49;7.47;;;6.87;;
58992;SDS011;44782;0.000;0.000;2022-12-18T01:56:05;7.97;;;7.27;;
58992;SDS011;44782;0.000;0.000;2022-12-18T01:58:23;7.70;;;7.00;;
58992;SDS011;44782;0.000;0.000;2022-12-18T02:00:55;8.27;;;7.57;;
58992;SDS011;44782;0.000;0.000;2022-12-18T02:03:11;7.90;;;7.20;;
58992;SDS011;44782;0.000;0.000;2022-12-18T02:08:09;7.63;;;7.03;;
58992;SDS011;44782;0.000;0.000;2022-12-18T02:10:48;8.00;;;7.30;;
58992;SDS011;44782;0.000;0.000;2022-12-18T02:15:38;8.13;;;7.43;;
58992;SDS011;44782;0.000;0.000;2022-12-18T02:18:19;7.37;;;6.67;;
58992;SDS011;44782;0.000;0.000;2022-12-18T02:28:11;7.80;;;7.10;;
58992;SDS011;44782;0.000;0.000;2022-12-18T02:30:29;7.87;;;7.27;;
58992;SDS011;44782;0.000;0.000;2022-12-18T02:32:49;7.27;;;6.67;;
58992;SDS011;44782;0.000;0.000;2022-12-18T02:37:41;7.70;;;7.00;;
58992;SDS011;44782;0.000;0.000;2022-12-18T02:40:00;7.10;;;6.50;;
58992;SDS011;44782;0.000;0.000;2022-12-18T02:42:18;7.77;;;7.07;;
58992;SDS011;44782;0.000;0.000;2022-12-18T02:44:34;7.90;;;7.20;;
58992;SDS011;44782;0.000;0.000;2022-12-18T02:46:57;7.63;;;7.03;;
58992;SDS011;44782;0.000;0.000;2022-12-18T02:51:53;7.13;;;6.53;;
58992;SDS011;44782;0.000;0.000;2022-12-18T02:54:18;7.93;;;7.23;;
58992;SDS011;44782;0.000;0.000;2022-12-18T02:56:50;7.20;;;6.60;;
58992;SDS011;44782;0.000;0.000;2022-12-18T02:59:12;7.57;;;6.90;;
58992;SDS011;44782;0.000;0.000;2022-12-18T03:01:35;7.67;;;6.97;;
58992;SDS011;44782;0.000;0.000;2022-12-18T03:04:17;7.10;;;6.50;;
58992;SDS011;44782;0.000;0.000;2022-12-18T03:06:42;7.77;;;7.07;;
58992;SDS011;44782;0.000;0.000;2022-12-18T03:09:02;7.50;;;6.90;;
58992;SDS011;44782;0.000;0.000;2022-12-18T03:11:24;7.50;;;6.90;;
58992;SDS011;44782;0.000;0.000;2022-12-18T03:14:02;8.23;;;7.53;;
58992;SDS011;44782;0.000;0.000;2022-12-18T03:16:24;7.60;;;7.00;;
58992;SDS011;44782;0.000;0.000;2022-12-18T03:18:47;7.37;;;6.77;;
58992;SDS011;44782;0.000;0.000;2022-12-18T03:21:07;7.57;;;6.90;;
58992;SDS011;44782;0.000;0.000;2022-12-18T03:23:27;7.80;;;7.10;;
58992;SDS011;44782;0.000;0.000;2022-12-18T03:25:47;7.43;;;6.83;;
58992;SDS011;44782;0.000;0.000;2022-12-18T03:28:06;7.70;;;7.00;;
58992;SDS011;44782;0.000;0.000;2022-12-18T03:30:24;7.37;;;6.77;;
58992;SDS011;44782;0.000;0.000;2022-12-18T03:33:01;7.43;;;6.73;;
58992;SDS011;44782;0.000;0.000;2022-12-18T03:35:28;7.17;;;6.57;;
58992;SDS011;44782;0.000;0.000;2022-12-18T03:37:46;7.53;;;6.83;;
58992;SDS011;44782;0.000;0.000;2022-12-18T03:40:03;6.80;;;6.23;;
58992;SDS011;44782;0.000;0.000;2022-12-18T03:42:27;7.50;;;6.80;;
58992;SDS011;44782;0.000;0.000;2022-12-18T03:50:14;7.37;;;6.67;;
58992;SDS011;44782;0.000;0.000;2022-12-18T03:55:29;7.53;;;6.83;;
58992;SDS011;44782;0.000;0.000;2022-12-18T03:57:49;8.23;;;7.53;;
58992;SDS011;44782;0.000;0.000;2022-12-18T04:00:13;7.73;;;7.10;;
58992;SDS011;44782;0.000;0.000;2022-12-18T04:02:31;7.37;;;6.77;;
58992;SDS011;44782;0.000;0.000;2022-12-18T04:04:50;7.80;;;7.10;;
58992;SDS011;44782;0.000;0.000;2022-12-18T04:07:08;7.73;;;7.03;;
58992;SDS011;44782;0.000;0.000;2022-12-18T04:09:24;7.73;;;6.97;;
58992;SDS011;44782;0.000;0.000;2022-12-18T04:11:41;7.27;;;6.67;;
58992;SDS011;44782;0.000;0.000;2022-12-18T04:14:00;7.67;;;7.00;;
58992;SDS011;44782;0.000;0.000;2022-12-18T04:16:16;7.63;;;6.93;;
58992;SDS011;44782;0.000;0.000;2022-12-18T04:18:31;8.13;;;7.40;;
58992;SDS011;44782;0.000;0.000;2022-12-18T04:20:47;7.70;;;7.00;;
58992;SDS011;44782;0.000;0.000;2022-12-18T04:23:02;7.20;;;6.60;;
58992;SDS011;44782;0.000;0.000;2022-12-18T04:25:18;7.17;;;6.57;;
58992;SDS011;44782;0.000;0.000;2022-12-18T04:27:34;7.17;;;6.57;;
58992;SDS011;44782;0.000;0.000;2022-12-18T04:29:50;7.37;;;6.67;;
58992;SDS011;44782;0.000;0.000;2022-12-18T04:32:05;6.93;;;6.33;;
58992;SDS011;44782;0.000;0.000;2022-12-18T04:34:21;7.33;;;6.63;;
58992;SDS011;44782;0.000;0.000;2022-12-18T04:36:37;7.20;;;6.60;;
58992;SDS011;44782;0.000;0.000;2022-12-18T04:38:53;7.00;;;6.40;;
58992;SDS011;44782;0.000;0.000;2022-12-18T04:41:09;7.50;;;6.80;;
58992;SDS011;44782;0.000;0.000;2022-12-18T04:43:25;7.60;;;7.00;;
58992;SDS011;44782;0.000;0.000;2022-12-18T04:45:40;7.40;;;6.73;;
58992;SDS011;44782;0.000;0.000;2022-12-18T04:47:59;6.73;;;6.13;;
58992;SDS011;44782;0.000;0.000;2022-12-18T04:50:16;7.30;;;6.60;;
58992;SDS011;44782;0.000;0.000;2022-12-18T04:52:31;6.63;;;6.13;;
58992;SDS011;44782;0.000;0.000;2022-12-18T04:54:47;6.80;;;6.20;;
58992;SDS011;44782;0.000;0.000;2022-12-18T04:57:03;7.03;;;6.43;;
58992;SDS011;44782;0.000;0.000;2022-12-18T04:59:18;7.60;;;6.90;;
58992;SDS011;44782;0.000;0.000;2022-12-18T05:01:34;7.13;;;6.53;;
58992;SDS011;44782;0.000;0.000;2022-12-18T05:03:50;7.40;;;6.80;;
58992;SDS011;44782;0.000;0.000;2022-12-18T05:06:07;7.50;;;6.90;;
58992;SDS011;44782;0.000;0.000;2022-12-18T05:08:22;7.17;;;6.57;;
58992;SDS011;44782;0.000;0.000;2022-12-18T05:10:40;7.30;;;6.70;;
58992;SDS011;44782;0.000;0.000;2022-12-18T05:12:55;7.33;;;6.73;;
58992;SDS011;44782;0.000;0.000;2022-12-18T05:15:14;7.20;;;6.60;;
58992;SDS011;44782;0.000;0.000;2022-12-18T05:17:29;7.17;;;6.47;;
58992;SDS011;44782;0.000;0.000;2022-12-18T05:19:45;6.73;;;6.13;;
58992;SDS011;44782;0.000;0.000;2022-12-18T05:22:01;6.90;;;6.30;;
58992;SDS011;44782;0.000;0.000;2022-12-18T05:24:16;6.67;;;6.07;;
58992;SDS011;44782;0.000;0.000;2022-12-18T05:26:32;7.00;;;6.40;;
58992;SDS011;44782;0.000;0.000;2022-12-18T05:28:47;6.80;;;6.30;;
58992;SDS011;44782;0.000;0.000;2022-12-18T05:31:03;6.87;;;6.27;;
58992;SDS011;44782;0.000;0.000;2022-12-18T05:33:20;6.60;;;6.10;;
58992;SDS011;44782;0.000;0.000;2022-12-18T05:35:37;7.00;;;6.40;;
58992;SDS011;44782;0.000;0.000;2022-12-18T05:37:54;6.20;;;5.70;;
58992;SDS011;44782;0.000;0.000;2022-12-18T05:40:10;6.40;;;5.90;;
58992;SDS011;44782;0.000;0.000;2022-12-18T05:42:26;6.30;;;5.80;;
58992;SDS011;44782;0.000;0.000;2022-12-18T05:44:43;6.20;;;5.70;;
58992;SDS011;44782;0.000;0.000;2022-12-18T05:46:58;6.40;;;5.90;;
58992;SDS011;44782;0.000;0.000;2022-12-18T05:49:14;6.30;;;5.80;;
58992;SDS011;44782;0.000;0.000;2022-12-18T05:51:30;5.90;;;5.40;;
58992;SDS011;44782;0.000;0.000;2022-12-18T05:53:46;6.10;;;5.60;;
58992;SDS011;44782;0.000;0.000;2022-12-18T05:56:04;6.30;;;5.80;;
58992;SDS011;44782;0.000;0.000;2022-12-18T05:58:21;6.20;;;5.70;;
58992;SDS011;44782;0.000;0.000;2022-12-18T06:00:38;6.13;;;5.63;;
58992;SDS011;44782;0.000;0.000;2022-12-18T06:02:55;6.03;;;5.53;;
58992;SDS011;44782;0.000;0.000;2022-12-18T06:05:11;5.87;;;5.47;;
58992;SDS011;44782;0.000;0.000;2022-12-18T06:07:27;6.73;;;6.17;;
58992;SDS011;44782;0.000;0.000;2022-12-18T06:09:42;6.30;;;5.80;;
58992;SDS011;44782;0.000;0.000;2022-12-18T06:11:58;5.93;;;5.43;;
58992;SDS011;44782;0.000;0.000;2022-12-18T06:14:14;5.77;;;5.27;;
58992;SDS011;44782;0.000;0.000;2022-12-18T06:16:32;5.67;;;5.27;;
58992;SDS011;44782;0.000;0.000;2022-12-18T06:18:47;5.90;;;5.40;;
58992;SDS011;44782;0.000;0.000;2022-12-18T06:21:03;6.20;;;5.70;;
58992;SDS011;44782;0.000;0.000;2022-12-18T06:23:19;6.40;;;5.90;;
58992;SDS011;44782;0.000;0.000;2022-12-18T06:25:37;5.80;;;5.30;;
58992;SDS011;44782;0.000;0.000;2022-12-18T06:27:54;6.07;;;5.47;;
58992;SDS011;44782;0.000;0.000;2022-12-18T06:30:09;6.20;;;5.70;;
58992;SDS011;44782;0.000;0.000;2022-12-18T06:32:26;6.30;;;5.80;;
58992;SDS011;44782;0.000;0.000;2022-12-18T06:34:42;6.47;;;5.87;;
58992;SDS011;44782;0.000;0.000;2022-12-18T06:36:57;6.00;;;5.50;;
58992;SDS011;44782;0.000;0.000;2022-12-18T06:39:13;6.30;;;5.70;;
58992;SDS011;44782;0.000;0.000;2022-12-18T06:41:29;6.03;;;5.53;;
58992;SDS011;44782;0.000;0.000;2022-12-18T06:43:45;6.13;;;5.60;;
58992;SDS011;44782;0.000;0.000;2022-12-18T06:46:00;6.17;;;5.67;;
58992;SDS011;44782;0.000;0.000;2022-12-18T06:48:20;6.23;;;5.73;;
58992;SDS011;44782;0.000;0.000;2022-12-18T06:50:36;6.53;;;6.03;;
58992;SDS011;44782;0.000;0.000;2022-12-18T06:52:51;6.80;;;6.20;;
58992;SDS011;44782;0.000;0.000;2022-12-18T06:55:07;5.83;;;5.33;;
58992;SDS011;44782;0.000;0.000;2022-12-18T06:57:23;6.67;;;6.17;;
58992;SDS011;44782;0.000;0.000;2022-12-18T06:59:39;6.43;;;5.87;;
58992;SDS011;44782;0.000;0.000;2022-12-18T07:01:55;6.23;;;5.73;;
58992;SDS011;44782;0.000;0.000;2022-12-18T07:04:11;6.37;;;5.87;;
58992;SDS011;44782;0.000;0.000;2022-12-18T07:06:26;6.67;;;6.07;;
58992;SDS011;44782;0.000;0.000;2022-12-18T07:08:42;5.70;;;5.23;;
58992;SDS011;44782;0.000;0.000;2022-12-18T07:10:58;6.40;;;5.80;;
58992;SDS011;44782;0.000;0.000;2022-12-18T07:13:14;6.00;;;5.50;;
58992;SDS011;44782;0.000;0.000;2022-12-18T07:15:31;5.97;;;5.47;;
58992;SDS011;44782;0.000;0.000;2022-12-18T07:17:46;6.17;;;5.67;;
58992;SDS011;44782;0.000;0.000;2022-12-18T07:20:02;6.60;;;6.03;;
58992;SDS011;44782;0.000;0.000;2022-12-18T07:22:18;6.07;;;5.57;;
58992;SDS011;44782;0.000;0.000;2022-12-18T07:24:34;5.93;;;5.43;;
58992;SDS011;44782;0.000;0.000;2022-12-18T07:26:49;5.83;;;5.33;;
58992;SDS011;44782;0.000;0.000;2022-12-18T07:29:05;5.90;;;5.40;;
58992;SDS011;44782;0.000;0.000;2022-12-18T07:31:21;5.97;;;5.47;;
58992;SDS011;44782;0.000;0.000;2022-12-18T07:33:37;6.30;;;5.80;;
58992;SDS011;44782;0.000;0.000;2022-12-18T07:35:52;6.27;;;5.77;;
58992;SDS011;44782;0.000;0.000;2022-12-18T07:38:08;5.70;;;5.27;;
58992;SDS011;44782;0.000;0.000;2022-12-18T07:40:24;6.10;;;5.60;;
58992;SDS011;44782;0.000;0.000;2022-12-18T07:42:40;5.60;;;5.10;;
58992;SDS011;44782;0.000;0.000;2022-12-18T07:44:55;5.80;;;5.30;;
58992;SDS011;44782;0.000;0.000;2022-12-18T07:47:12;5.63;;;5.23;;
58992;SDS011;44782;0.000;0.000;2022-12-18T07:49:27;5.97;;;5.47;;
58992;SDS011;44782;0.000;0.000;2022-12-18T07:51:43;6.23;;;5.73;;
58992;SDS011;44782;0.000;0.000;2022-12-18T07:54:03;5.60;;;5.20;;
58992;SDS011;44782;0.000;0.000;2022-12-18T07:56:19;6.00;;;5.50;;
58992;SDS011;44782;0.000;0.000;2022-12-18T07:58:36;5.67;;;5.27;;
58992;SDS011;44782;0.000;0.000;2022-12-18T08:00:52;6.00;;;5.50;;
58992;SDS011;44782;0.000;0.000;2022-12-18T08:03:09;6.03;;;5.53;;
58992;SDS011;44782;0.000;0.000;2022-12-18T08:05:24;5.87;;;5.37;;
58992;SDS011;44782;0.000;0.000;2022-12-18T08:07:41;5.97;;;5.47;;
58992;SDS011;44782;0.000;0.000;2022-12-18T08:09:56;6.00;;;5.50;;
58992;SDS011;44782;0.000;0.000;2022-12-18T08:12:12;5.70;;;5.20;;
58992;SDS011;44782;0.000;0.000;2022-12-18T08:14:28;6.03;;;5.57;;
58992;SDS011;44782;0.000;0.000;2022-12-18T08:16:43;5.97;;;5.47;;
58992;SDS011;44782;0.000;0.000;2022-12-18T08:18:59;6.07;;;5.53;;
58992;SDS011;44782;0.000;0.000;2022-12-18T08:21:15;5.77;;;5.27;;
58992;SDS011;44782;0.000;0.000;2022-12-18T08:23:33;6.43;;;5.90;;
58992;SDS011;44782;0.000;0.000;2022-12-18T08:25:48;5.77;;;5.27;;
58992;SDS011;44782;0.000;0.000;2022-12-18T08:28:05;6.17;;;5.67;;
58992;SDS011;44782;0.000;0.000;2022-12-18T08:30:20;6.23;;;5.63;;
58992;SDS011;44782;0.000;0.000;2022-12-18T08:32:36;6.60;;;6.00;;
58992;SDS011;44782;0.000;0.000;2022-12-18T08:34:51;6.27;;;5.77;;
58992;SDS011;44782;0.000;0.000;2022-12-18T08:37:07;6.60;;;6.10;;
58992;SDS011;44782;0.000;0.000;2022-12-18T08:39:23;6.80;;;6.20;;
58992;SDS011;44782;0.000;0.000;2022-12-18T08:41:39;6.70;;;6.10;;
58992;SDS011;44782;0.000;0.000;2022-12-18T08:43:55;6.50;;;5.90;;
58992;SDS011;44782;0.000;0.000;2022-12-18T08:46:36;6.60;;;6.10;;
58992;SDS011;44782;0.000;0.000;2022-12-18T08:48:54;6.80;;;6.20;;
58992;SDS011;44782;0.000;0.000;2022-12-18T08:51:10;6.60;;;6.03;;
58992;SDS011;44782;0.000;0.000;2022-12-18T08:53:26;7.60;;;7.00;;
58992;SDS011;44782;0.000;0.000;2022-12-18T08:55:42;7.53;;;6.93;;
58992;SDS011;44782;0.000;0.000;2022-12-18T08:57:58;7.93;;;7.23;;
58992;SDS011;44782;0.000;0.000;2022-12-18T09:00:13;7.57;;;6.93;;
58992;SDS011;44782;0.000;0.000;2022-12-18T09:02:29;8.07;;;7.37;;
58992;SDS011;44782;0.000;0.000;2022-12-18T09:04:46;7.50;;;6.80;;
58992;SDS011;44782;0.000;0.000;2022-12-18T09:07:02;7.47;;;6.77;;
58992;SDS011;44782;0.000;0.000;2022-12-18T09:09:18;7.30;;;6.70;;
58992;SDS011;44782;0.000;0.000;2022-12-18T09:11:33;7.50;;;6.87;;
58992;SDS011;44782;0.000;0.000;2022-12-18T09:13:49;7.33;;;6.73;;
58992;SDS011;44782;0.000;0.000;2022-12-18T09:16:06;7.53;;;6.93;;
58992;SDS011;44782;0.000;0.000;2022-12-18T09:18:23;7.50;;;6.90;;
58992;SDS011;44782;0.000;0.000;2022-12-18T09:20:40;7.23;;;6.63;;
58992;SDS011;44782;0.000;0.000;2022-12-18T09:22:55;7.70;;;7.00;;
58992;SDS011;44782;0.000;0.000;2022-12-18T09:25:11;7.53;;;6.83;;
58992;SDS011;44782;0.000;0.000;2022-12-18T09:27:26;6.77;;;6.27;;
58992;SDS011;44782;0.000;0.000;2022-12-18T09:29:42;7.30;;;6.70;;
58992;SDS011;44782;0.000;0.000;2022-12-18T09:31:58;6.73;;;6.23;;
58992;SDS011;44782;0.000;0.000;2022-12-18T09:34:14;6.97;;;6.37;;
58992;SDS011;44782;0.000;0.000;2022-12-18T09:36:29;6.37;;;5.87;;
58992;SDS011;44782;0.000;0.000;2022-12-18T09:38:45;6.83;;;6.23;;
58992;SDS011;44782;0.000;0.000;2022-12-18T09:43:50;6.10;;;5.60;;
58992;SDS011;44782;0.000;0.000;2022-12-18T09:46:10;6.90;;;6.40;;
58992;SDS011;44782;0.000;0.000;2022-12-18T09:48:34;6.97;;;6.37;;
58992;SDS011;44782;0.000;0.000;2022-12-18T09:50:55;6.83;;;6.23;;
58992;SDS011;44782;0.000;0.000;2022-12-18T09:53:22;7.00;;;6.40;;
58992;SDS011;44782;0.000;0.000;2022-12-18T09:55:43;6.57;;;6.03;;
58992;SDS011;44782;0.000;0.000;2022-12-18T09:58:02;6.83;;;6.23;;
58992;SDS011;44782;0.000;0.000;2022-12-18T10:00:34;6.97;;;6.33;;
58992;SDS011;44782;0.000;0.000;2022-12-18T10:02:56;7.03;;;6.43;;
58992;SDS011;44782;0.000;0.000;2022-12-18T10:05:27;6.80;;;6.20;;
58992;SDS011;44782;0.000;0.000;2022-12-18T10:08:38;6.33;;;5.83;;
58992;SDS011;44782;0.000;0.000;2022-12-18T10:10:51;6.87;;;6.33;;
58992;SDS011;44782;0.000;0.000;2022-12-18T10:15:39;6.87;;;6.27;;
58992;SDS011;44782;0.000;0.000;2022-12-18T10:21:06;6.60;;;6.07;;
58992;SDS011;44782;0.000;0.000;2022-12-18T10:23:33;6.33;;;5.83;;
58992;SDS011;44782;0.000;0.000;2022-12-18T10:28:24;6.33;;;5.83;;
58992;SDS011;44782;0.000;0.000;2022-12-18T10:30:41;6.93;;;6.33;;
58992;SDS011;44782;0.000;0.000;2022-12-18T10:33:01;6.47;;;5.97;;
58992;SDS011;44782;0.000;0.000;2022-12-18T10:35:19;6.77;;;6.23;;
58992;SDS011;44782;0.000;0.000;2022-12-18T10:37:39;6.20;;;5.70;;
58992;SDS011;44782;0.000;0.000;2022-12-18T10:40:15;5.87;;;5.37;;
58992;SDS011;44782;0.000;0.000;2022-12-18T10:42:31;6.10;;;5.60;;
58992;SDS011;44782;0.000;0.000;2022-12-18T10:44:47;6.30;;;5.70;;
58992;SDS011;44782;0.000;0.000;2022-12-18T10:47:18;6.83;;;6.17;;
58992;SDS011;44782;0.000;0.000;2022-12-18T10:49:34;6.23;;;5.73;;
58992;SDS011;44782;0.000;0.000;2022-12-18T10:51:50;6.10;;;5.60;;
58992;SDS011;44782;0.000;0.000;2022-12-18T10:54:22;5.77;;;5.37;;
58992;SDS011;44782;0.000;0.000;2022-12-18T10:56:41;6.30;;;5.80;;
58992;SDS011;44782;0.000;0.000;2022-12-18T10:59:01;5.90;;;5.40;;
58992;SDS011;44782;0.000;0.000;2022-12-18T11:01:19;6.20;;;5.70;;
58992;SDS011;44782;0.000;0.000;2022-12-18T11:03:36;5.63;;;5.23;;
58992;SDS011;44782;0.000;0.000;2022-12-18T11:06:02;6.20;;;5.70;;
58992;SDS011;44782;0.000;0.000;2022-12-18T11:08:21;6.30;;;5.80;;
58992;SDS011;44782;0.000;0.000;2022-12-18T11:10:38;6.20;;;5.70;;
58992;SDS011;44782;0.000;0.000;2022-12-18T11:12:55;6.23;;;5.73;;
58992;SDS011;44782;0.000;0.000;2022-12-18T11:15:26;6.37;;;5.33;;
58992;SDS011;44782;0.000;0.000;2022-12-18T11:17:44;6.03;;;5.53;;
58992;SDS011;44782;0.000;0.000;2022-12-18T11:20:25;7.73;;;5.07;;
58992;SDS011;44782;0.000;0.000;2022-12-18T11:25:32;7.27;;;5.00;;
58992;SDS011;44782;0.000;0.000;2022-12-18T11:27:52;8.53;;;5.47;;
58992;SDS011;44782;0.000;0.000;2022-12-18T11:32:39;6.80;;;5.40;;
58992;SDS011;44782;0.000;0.000;2022-12-18T11:35:10;9.13;;;5.67;;
58992;SDS011;44782;0.000;0.000;2022-12-18T11:37:49;7.87;;;5.50;;
58992;SDS011;44782;0.000;0.000;2022-12-18T11:40:17;7.20;;;5.47;;
58992;SDS011;44782;0.000;0.000;2022-12-18T11:42:37;6.70;;;6.00;;
58992;SDS011;44782;0.000;0.000;2022-12-18T11:45:04;9.03;;;6.60;;
58992;SDS011;44782;0.000;0.000;2022-12-18T11:47:29;6.77;;;6.07;;
58992;SDS011;44782;0.000;0.000;2022-12-18T11:49:54;8.07;;;6.37;;
58992;SDS011;44782;0.000;0.000;2022-12-18T11:52:56;8.90;;;6.33;;
58992;SDS011;44782;0.000;0.000;2022-12-18T11:54:55;8.67;;;6.77;;
58992;SDS011;44782;0.000;0.000;2022-12-18T12:00:16;11.53;;;9.43;;
58992;SDS011;44782;0.000;0.000;2022-12-18T12:08:16;17.60;;;13.23;;
58992;SDS011;44782;0.000;0.000;2022-12-18T12:10:48;15.23;;;13.63;;
58992;SDS011;44782;0.000;0.000;2022-12-18T12:13:38;18.27;;;15.87;;
58992;SDS011;44782;0.000;0.000;2022-12-18T12:21:55;37.13;;;29.03;;
58992;SDS011;44782;0.000;0.000;2022-12-18T12:24:21;36.00;;;28.80;;
58992;SDS011;44782;0.000;0.000;2022-12-18T12:39:28;27.27;;;20.83;;
58992;SDS011;44782;0.000;0.000;2022-12-18T12:41:47;27.60;;;21.67;;
58992;SDS011;44782;0.000;0.000;2022-12-18T12:44:26;25.70;;;20.37;;
58992;SDS011;44782;0.000;0.000;2022-12-18T12:46:47;24.67;;;20.10;;
58992;SDS011;44782;0.000;0.000;2022-12-18T12:49:09;24.00;;;20.73;;
58992;SDS011;44782;0.000;0.000;2022-12-18T12:51:38;22.37;;;18.50;;
58992;SDS011;44782;0.000;0.000;2022-12-18T12:53:58;23.47;;;18.20;;
58992;SDS011;44782;0.000;0.000;2022-12-18T12:56:16;22.47;;;18.53;;
58992;SDS011;44782;0.000;0.000;2022-12-18T12:58:36;20.13;;;16.97;;
58992;SDS011;44782;0.000;0.000;2022-12-18T13:01:19;19.73;;;17.60;;
58992;SDS011;44782;0.000;0.000;2022-12-18T13:08:56;19.47;;;15.63;;
58992;SDS011;44782;0.000;0.000;2022-12-18T13:11:27;19.10;;;15.60;;
58992;SDS011;44782;0.000;0.000;2022-12-18T13:14:02;17.00;;;15.17;;
58992;SDS011;44782;0.000;0.000;2022-12-18T13:16:18;19.80;;;15.30;;
58992;SDS011;44782;0.000;0.000;2022-12-18T13:18:36;18.77;;;14.60;;
58992;SDS011;44782;0.000;0.000;2022-12-18T13:23:34;16.93;;;14.03;;
58992;SDS011;44782;0.000;0.000;2022-12-18T13:26:36;15.57;;;13.37;;
58992;SDS011;44782;0.000;0.000;2022-12-18T13:30:55;17.77;;;13.67;;
58992;SDS011;44782;0.000;0.000;2022-12-18T13:35:38;14.93;;;13.20;;
58992;SDS011;44782;0.000;0.000;2022-12-18T13:37:54;16.57;;;12.63;;
58992;SDS011;44782;0.000;0.000;2022-12-18T13:42:58;15.30;;;12.30;;
58992;SDS011;44782;0.000;0.000;2022-12-18T13:45:37;15.30;;;12.13;;
58992;SDS011;44782;0.000;0.000;2022-12-18T13:47:58;14.73;;;11.83;;
58992;SDS011;44782;0.000;0.000;2022-12-18T13:50:23;13.87;;;11.57;;
58992;SDS011;44782;0.000;0.000;2022-12-18T13:52:40;14.03;;;11.30;;
58992;SDS011;44782;0.000;0.000;2022-12-18T13:54:59;13.90;;;11.47;;
58992;SDS011;44782;0.000;0.000;2022-12-18T13:57:35;12.43;;;11.13;;
58992;SDS011;44782;0.000;0.000;2022-12-18T13:59:56;13.07;;;11.03;;
58992;SDS011;44782;0.000;0.000;2022-12-18T14:02:14;13.20;;;11.37;;
58992;SDS011;44782;0.000;0.000;2022-12-18T14:04:32;11.97;;;10.70;;
58992;SDS011;44782;0.000;0.000;2022-12-18T14:06:50;11.40;;;10.07;;
58992;SDS011;44782;0.000;0.000;2022-12-18T14:09:10;13.30;;;10.93;;
58992;SDS011;44782;0.000;0.000;2022-12-18T14:11:30;12.40;;;10.53;;
58992;SDS011;44782;0.000;0.000;2022-12-18T14:13:45;12.30;;;10.50;;
58992;SDS011;44782;0.000;0.000;2022-12-18T14:16:03;11.83;;;10.00;;
58992;SDS011;44782;0.000;0.000;2022-12-18T14:18:29;11.13;;;9.93;;
58992;SDS011;44782;0.000;0.000;2022-12-18T14:20:48;11.23;;;10.13;;
58992;SDS011;44782;0.000;0.000;2022-12-18T14:23:05;10.37;;;9.37;;
58992;SDS011;44782;0.000;0.000;2022-12-18T14:25:45;11.20;;;10.07;;
58992;SDS011;44782;0.000;0.000;2022-12-18T14:32:42;11.40;;;9.77;;
58992;SDS011;44782;0.000;0.000;2022-12-18T14:34:57;11.73;;;9.37;;
58992;SDS011;44782;0.000;0.000;2022-12-18T14:37:15;10.33;;;8.97;;
58992;SDS011;44782;0.000;0.000;2022-12-18T14:39:52;11.70;;;9.00;;
58992;SDS011;44782;0.000;0.000;2022-12-18T14:42:10;12.60;;;8.93;;
58992;SDS011;44782;0.000;0.000;2022-12-18T14:44:26;9.93;;;8.93;;
58992;SDS011;44782;0.000;0.000;2022-12-18T14:46:42;9.73;;;8.63;;
58992;SDS011;44782;0.000;0.000;2022-12-18T14:49:46;9.87;;;8.90;;
58992;SDS011;44782;0.000;0.000;2022-12-18T14:51:55;9.17;;;8.10;;
58992;SDS011;44782;0.000;0.000;2022-12-18T14:54:16;9.57;;;8.67;;
58992;SDS011;44782;0.000;0.000;2022-12-18T14:56:34;10.97;;;8.23;;
58992;SDS011;44782;0.000;0.000;2022-12-18T14:58:55;9.73;;;8.47;;
58992;SDS011;44782;0.000;0.000;2022-12-18T15:01:20;9.73;;;8.73;;
58992;SDS011;44782;0.000;0.000;2022-12-18T15:03:56;8.83;;;7.93;;
58992;SDS011;44782;0.000;0.000;2022-12-18T15:06:33;7.93;;;7.23;;
58992;SDS011;44782;0.000;0.000;2022-12-18T15:08:51;9.43;;;7.60;;
58992;SDS011;44782;0.000;0.000;2022-12-18T15:11:24;9.00;;;7.33;;
58992;SDS011;44782;0.000;0.000;2022-12-18T15:14:21;7.90;;;7.20;;
58992;SDS011;44782;0.000;0.000;2022-12-18T15:16:57;7.97;;;7.17;;
58992;SDS011;44782;0.000;0.000;2022-12-18T15:19:15;8.33;;;7.37;;
58992;SDS011;44782;0.000;0.000;2022-12-18T15:21:31;7.97;;;7.27;;
58992;SDS011;44782;0.000;0.000;2022-12-18T15:23:48;7.97;;;7.17;;
58992;SDS011;44782;0.000;0.000;2022-12-18T15:26:06;8.70;;;7.80;;
58992;SDS011;44782;0.000;0.000;2022-12-18T15:28:26;7.73;;;7.03;;
58992;SDS011;44782;0.000;0.000;2022-12-18T15:31:04;7.63;;;6.93;;
58992;SDS011;44782;0.000;0.000;2022-12-18T15:33:33;7.63;;;6.93;;
58992;SDS011;44782;0.000;0.000;2022-12-18T15:35:57;7.50;;;6.80;;
58992;SDS011;44782;0.000;0.000;2022-12-18T15:38:14;8.63;;;7.40;;
58992;SDS011;44782;0.000;0.000;2022-12-18T15:40:29;7.97;;;7.17;;
58992;SDS011;44782;0.000;0.000;2022-12-18T15:42:45;7.50;;;6.80;;
58992;SDS011;44782;0.000;0.000;2022-12-18T15:45:29;7.20;;;6.50;;